Time;durP1;ratioP1;P1;durP2;ratioP2;P2;SDS_P1;SDS_P2;PMS_P1;PMS_P2;Temp;Humidity;BMP_temperature;BMP_pressure;BME280_temperature;BME280_humidity;BME280_pressure;Samples;Min_cycle;Max_cycle;Signal;HPM_P1;HPM_P2
2022/11/18 00:00:27;;;;;;;26.63;22.98;;;;;;;;;;5082687;28;20048;-72
2022/11/18 00:02:53;;;;;;;29.85;24.20;;;;;;;;;;5086176;28;20486;-71
2022/11/18 00:05:19;;;;;;;29.48;24.40;;;;;;;;;;5085009;28;20043;-73
2022/11/18 00:07:45;;;;;;;28.90;24.02;;;;;;;;;;5086150;28;20065;-72
2022/11/18 00:10:11;;;;;;;30.95;24.55;;;;;;;;;;5087658;28;20066;-73
2022/11/18 00:15:22;;;;;;;32.47;24.75;;;;;;;;;;5089091;28;20035;-71
2022/11/18 00:17:48;;;;;;;35.00;25.83;;;;;;;;;;5089438;28;20382;-72
2022/11/18 00:20:14;;;;;;;37.60;26.90;;;;;;;;;;5085686;28;20054;-72
2022/11/18 00:22:40;;;;;;;39.97;26.52;;;;;;;;;;5079049;28;20788;-73
2022/11/18 00:25:06;;;;;;;38.65;27.00;;;;;;;;;;5075897;28;20047;-72
2022/11/18 00:27:32;;;;;;;52.42;29.50;;;;;;;;;;5086739;28;20078;-72
2022/11/18 00:29:58;;;;;;;41.05;27.48;;;;;;;;;;5083321;28;21359;-74
2022/11/18 00:32:24;;;;;;;49.28;29.88;;;;;;;;;;5070638;28;20063;-71
2022/11/18 00:34:50;;;;;;;48.00;30.10;;;;;;;;;;5087642;28;20494;-72
2022/11/18 00:37:16;;;;;;;53.67;31.42;;;;;;;;;;5065588;28;20055;-73
2022/11/18 00:39:42;;;;;;;49.58;30.60;;;;;;;;;;5088540;28;20039;-71
2022/11/18 00:42:55;;;;;;;52.60;31.50;;;;;;;;;;5083856;28;20035;-71
2022/11/18 00:44:54;;;;;;;51.97;31.60;;;;;;;;;;5071828;28;20044;-71
2022/11/18 00:47:20;;;;;;;51.95;31.10;;;;;;;;;;5068812;28;20168;-72
2022/11/18 00:49:46;;;;;;;51.80;31.55;;;;;;;;;;5088266;28;20067;-73
2022/11/18 00:52:12;;;;;;;56.15;32.03;;;;;;;;;;5085169;28;20428;-71
2022/11/18 00:54:38;;;;;;;55.38;31.60;;;;;;;;;;5090318;28;20043;-71
2022/11/18 00:57:04;;;;;;;52.83;33.00;;;;;;;;;;5088575;28;20043;-71
2022/11/18 00:59:30;;;;;;;58.70;33.28;;;;;;;;;;5091800;28;20040;-72
2022/11/18 01:01:56;;;;;;;55.70;32.17;;;;;;;;;;5083022;28;20184;-72
2022/11/18 01:04:22;;;;;;;57.58;33.15;;;;;;;;;;5083776;28;20160;-73
2022/11/18 01:06:48;;;;;;;66.70;34.40;;;;;;;;;;5085435;28;20039;-71
2022/11/18 01:09:15;;;;;;;61.72;33.45;;;;;;;;;;5084967;28;20119;-71
2022/11/18 01:14:25;;;;;;;60.67;33.83;;;;;;;;;;5072824;28;20055;-74
2022/11/18 01:16:55;;;;;;;59.40;33.90;;;;;;;;;;5085348;28;20082;-71
2022/11/18 01:19:22;;;;;;;54.75;33.08;;;;;;;;;;5082342;28;20553;-71
2022/11/18 01:21:48;;;;;;;63.45;35.20;;;;;;;;;;5084204;27;20048;-71
2022/11/18 01:24:15;;;;;;;64.60;35.33;;;;;;;;;;5081062;28;20515;-72
2022/11/18 01:26:41;;;;;;;64.75;34.33;;;;;;;;;;5081604;28;20063;-71
2022/11/18 01:29:07;;;;;;;61.35;34.88;;;;;;;;;;5084472;28;20090;-71
2022/11/18 01:31:33;;;;;;;62.78;34.63;;;;;;;;;;5081551;28;20055;-71
2022/11/18 01:33:59;;;;;;;64.68;35.47;;;;;;;;;;5085403;28;20035;-71
2022/11/18 01:36:26;;;;;;;62.75;35.88;;;;;;;;;;5084561;28;20070;-72
2022/11/18 01:38:52;;;;;;;61.05;35.38;;;;;;;;;;5087675;27;20039;-71
2022/11/18 01:41:19;;;;;;;61.67;35.00;;;;;;;;;;5080687;28;20046;-70
2022/11/18 01:43:51;;;;;;;68.22;35.13;;;;;;;;;;5068357;28;20648;-73
2022/11/18 01:46:17;;;;;;;66.28;35.22;;;;;;;;;;5087983;28;20043;-73
2022/11/18 01:48:44;;;;;;;59.58;35.20;;;;;;;;;;5100911;27;20047;-73
2022/11/18 01:51:12;;;;;;;66.95;34.13;;;;;;;;;;5084538;28;20461;-71
2022/11/18 01:53:41;;;;;;;71.70;35.90;;;;;;;;;;5085155;28;20071;-70
2022/11/18 01:56:10;;;;;;;64.68;35.45;;;;;;;;;;5088103;28;20047;-73
2022/11/18 01:58:49;;;;;;;58.30;34.22;;;;;;;;;;5083010;28;20036;-73
2022/11/18 02:01:15;;;;;;;62.60;35.38;;;;;;;;;;5066733;28;20697;-71
2022/11/18 02:03:42;;;;;;;72.03;34.67;;;;;;;;;;5075993;28;20036;-74
2022/11/18 02:06:09;;;;;;;63.72;34.22;;;;;;;;;;5084994;28;20045;-73
2022/11/18 02:08:36;;;;;;;58.95;34.45;;;;;;;;;;5085617;28;20048;-73
2022/11/18 02:11:03;;;;;;;63.17;34.80;;;;;;;;;;5084030;28;20108;-73
2022/11/18 02:13:31;;;;;;;65.90;36.13;;;;;;;;;;5081265;28;20456;-73
2022/11/18 02:16:09;;;;;;;75.13;37.83;;;;;;;;;;5068455;28;20142;-74
2022/11/18 02:18:34;;;;;;;68.78;36.78;;;;;;;;;;5100591;28;20550;-73
2022/11/18 02:21:24;;;;;;;68.55;36.45;;;;;;;;;;5085491;28;20032;-73
2022/11/18 02:23:56;;;;;;;64.50;35.95;;;;;;;;;;5071740;28;20059;-73
2022/11/18 02:26:35;;;;;;;79.53;37.17;;;;;;;;;;5068742;28;20051;-73
2022/11/18 02:29:09;;;;;;;61.97;34.03;;;;;;;;;;5081240;28;20505;-73
2022/11/18 02:31:35;;;;;;;61.65;35.47;;;;;;;;;;5081591;28;20055;-73
2022/11/18 02:34:20;;;;;;;58.83;34.50;;;;;;;;;;5081610;28;20039;-70
2022/11/18 02:36:51;;;;;;;56.35;33.53;;;;;;;;;;5091441;28;20062;-73
2022/11/18 02:39:19;;;;;;;54.47;33.90;;;;;;;;;;5068140;28;20052;-71
2022/11/18 02:41:45;;;;;;;66.50;35.92;;;;;;;;;;5083637;28;20532;-72
2022/11/18 02:44:16;;;;;;;57.45;34.10;;;;;;;;;;5103339;27;20067;-70
2022/11/18 02:46:44;;;;;;;59.22;35.45;;;;;;;;;;5082001;28;20040;-74
2022/11/18 02:49:13;;;;;;;56.65;34.92;;;;;;;;;;5081747;28;20052;-73
2022/11/18 02:51:41;;;;;;;56.72;35.13;;;;;;;;;;5085215;28;20120;-74
2022/11/18 02:54:08;;;;;;;56.92;34.70;;;;;;;;;;5085535;28;20051;-74
2022/11/18 02:56:35;;;;;;;56.60;34.63;;;;;;;;;;5063101;28;20113;-71
2022/11/18 02:59:02;;;;;;;54.92;34.38;;;;;;;;;;5080899;28;20035;-72
2022/11/18 03:01:29;;;;;;;59.38;35.78;;;;;;;;;;5066498;28;20055;-73
2022/11/18 03:03:55;;;;;;;63.75;35.28;;;;;;;;;;5084389;28;20095;-73
2022/11/18 03:06:37;;;;;;;58.10;35.83;;;;;;;;;;5088551;28;20087;-71
2022/11/18 03:09:14;;;;;;;60.60;36.22;;;;;;;;;;5081485;28;20054;-73
2022/11/18 03:11:53;;;;;;;59.95;35.85;;;;;;;;;;5066329;28;20040;-72
2022/11/18 03:14:38;;;;;;;58.65;35.47;;;;;;;;;;5081689;28;20053;-73
2022/11/18 03:17:13;;;;;;;58.38;36.20;;;;;;;;;;5046977;28;20711;-73
2022/11/18 03:19:49;;;;;;;59.17;35.45;;;;;;;;;;5065157;28;20040;-73
2022/11/18 03:22:39;;;;;;;56.45;35.40;;;;;;;;;;5085254;28;20787;-71
2022/11/18 03:25:31;;;;;;;65.65;36.67;;;;;;;;;;5060191;28;20048;-73
2022/11/18 03:27:57;;;;;;;57.80;35.90;;;;;;;;;;5045174;28;20149;-73
2022/11/18 03:30:24;;;;;;;57.72;35.92;;;;;;;;;;5082414;28;20056;-71
2022/11/18 03:32:52;;;;;;;53.70;34.08;;;;;;;;;;5078395;28;20512;-72
2022/11/18 03:35:22;;;;;;;57.17;34.25;;;;;;;;;;5063305;28;20163;-74
2022/11/18 03:37:50;;;;;;;53.35;33.10;;;;;;;;;;5086364;27;20056;-71
2022/11/18 03:40:25;;;;;;;51.40;33.40;;;;;;;;;;5087448;28;20039;-74
2022/11/18 03:42:56;;;;;;;49.20;32.83;;;;;;;;;;5086559;28;20101;-73
2022/11/18 03:45:24;;;;;;;54.55;33.85;;;;;;;;;;5084899;28;20135;-73
2022/11/18 03:47:59;;;;;;;50.08;32.45;;;;;;;;;;5086805;28;20395;-73
2022/11/18 03:50:27;;;;;;;54.50;33.75;;;;;;;;;;5088276;28;20051;-73
2022/11/18 03:52:54;;;;;;;52.30;31.83;;;;;;;;;;5084216;28;20036;-73
2022/11/18 03:55:23;;;;;;;53.65;31.60;;;;;;;;;;5085269;28;20561;-73
2022/11/18 03:57:53;;;;;;;51.67;32.05;;;;;;;;;;5086483;28;20449;-73
2022/11/18 04:00:19;;;;;;;50.97;31.45;;;;;;;;;;5084380;28;20054;-72
2022/11/18 04:02:47;;;;;;;52.72;31.17;;;;;;;;;;5084827;28;20073;-73
2022/11/18 04:05:13;;;;;;;48.17;30.85;;;;;;;;;;5085470;28;20101;-71
2022/11/18 04:07:55;;;;;;;55.45;32.67;;;;;;;;;;5088157;28;20040;-73
2022/11/18 04:10:24;;;;;;;49.13;30.88;;;;;;;;;;5083710;28;20051;-72
2022/11/18 04:12:54;;;;;;;44.95;30.70;;;;;;;;;;5088060;28;20126;-73
2022/11/18 04:15:20;;;;;;;45.80;30.83;;;;;;;;;;5084391;28;20051;-74
2022/11/18 04:17:46;;;;;;;47.38;30.48;;;;;;;;;;5084588;28;20098;-72
2022/11/18 04:20:19;;;;;;;50.10;30.80;;;;;;;;;;5084605;28;20538;-72
2022/11/18 04:22:46;;;;;;;50.53;31.75;;;;;;;;;;5087143;28;20093;-71
2022/11/18 04:25:12;;;;;;;47.00;30.23;;;;;;;;;;5088883;28;20043;-72
2022/11/18 04:27:38;;;;;;;48.28;31.08;;;;;;;;;;5087408;28;20059;-72
2022/11/18 04:30:05;;;;;;;53.63;33.10;;;;;;;;;;5088780;28;20039;-73
2022/11/18 04:32:31;;;;;;;46.03;31.02;;;;;;;;;;5084181;28;20061;-74
2022/11/18 04:34:57;;;;;;;47.92;32.17;;;;;;;;;;5086149;28;20051;-72
2022/11/18 04:37:24;;;;;;;46.08;30.58;;;;;;;;;;5083299;28;20075;-72
2022/11/18 04:39:50;;;;;;;46.90;30.75;;;;;;;;;;5087084;28;20039;-71
2022/11/18 04:42:16;;;;;;;52.00;32.75;;;;;;;;;;5086636;28;20046;-71
2022/11/18 04:44:42;;;;;;;46.88;30.92;;;;;;;;;;5084435;27;20115;-74
2022/11/18 04:47:08;;;;;;;51.63;31.25;;;;;;;;;;5088231;28;20117;-72
2022/11/18 04:49:34;;;;;;;49.30;31.35;;;;;;;;;;5084236;28;20048;-72
2022/11/18 04:52:00;;;;;;;50.13;31.65;;;;;;;;;;5071600;28;20050;-72
2022/11/18 04:54:27;;;;;;;46.35;29.92;;;;;;;;;;5087657;28;20640;-74
2022/11/18 04:56:53;;;;;;;46.95;30.77;;;;;;;;;;5083442;28;20054;-73
2022/11/18 04:59:23;;;;;;;47.90;29.83;;;;;;;;;;5102075;28;20043;-73
2022/11/18 05:01:49;;;;;;;53.22;31.73;;;;;;;;;;5081658;28;20079;-74
2022/11/18 05:04:16;;;;;;;44.85;29.35;;;;;;;;;;5082677;28;20043;-71
2022/11/18 05:06:42;;;;;;;46.75;29.92;;;;;;;;;;5083777;28;20052;-70
2022/11/18 05:09:08;;;;;;;46.90;30.58;;;;;;;;;;5080666;28;20101;-73
2022/11/18 05:14:18;;;;;;;51.05;30.02;;;;;;;;;;5084393;28;20134;-71
2022/11/18 05:16:44;;;;;;;51.17;30.23;;;;;;;;;;5086393;28;20216;-72
2022/11/18 05:19:10;;;;;;;47.20;29.35;;;;;;;;;;5083412;28;20040;-74
2022/11/18 05:21:36;;;;;;;49.90;30.17;;;;;;;;;;5082911;28;20040;-72
2022/11/18 05:24:02;;;;;;;46.10;29.20;;;;;;;;;;5087087;28;20118;-73
2022/11/18 05:26:29;;;;;;;45.30;29.05;;;;;;;;;;5085073;28;20081;-72
2022/11/18 05:28:55;;;;;;;45.08;29.55;;;;;;;;;;5085934;28;20043;-72
2022/11/18 05:31:21;;;;;;;49.00;29.45;;;;;;;;;;5081441;28;20059;-72
2022/11/18 05:33:47;;;;;;;50.75;29.98;;;;;;;;;;5065285;28;20052;-74
2022/11/18 05:36:14;;;;;;;49.35;31.35;;;;;;;;;;5083449;28;20051;-72
2022/11/18 05:38:41;;;;;;;51.13;30.75;;;;;;;;;;5088241;28;20054;-72
2022/11/18 05:41:07;;;;;;;48.03;31.13;;;;;;;;;;5084621;28;20054;-72
2022/11/18 05:43:33;;;;;;;52.20;31.10;;;;;;;;;;5083482;28;20054;-73
2022/11/18 05:45:59;;;;;;;47.80;30.83;;;;;;;;;;5083063;28;20081;-71
2022/11/18 05:48:25;;;;;;;52.33;31.92;;;;;;;;;;5083212;28;20132;-72
2022/11/18 05:50:52;;;;;;;48.38;30.95;;;;;;;;;;5068226;28;20455;-71
2022/11/18 05:53:19;;;;;;;49.65;30.88;;;;;;;;;;5083937;28;20075;-73
2022/11/18 05:55:49;;;;;;;48.80;31.58;;;;;;;;;;5084552;28;20458;-73
2022/11/18 05:58:15;;;;;;;49.67;30.52;;;;;;;;;;5083852;28;20453;-73
2022/11/18 06:00:41;;;;;;;48.63;31.15;;;;;;;;;;5083781;28;20070;-73
2022/11/18 06:03:10;;;;;;;51.33;30.60;;;;;;;;;;5089299;28;20051;-71
2022/11/18 06:05:36;;;;;;;49.50;31.35;;;;;;;;;;5083528;28;20043;-73
2022/11/18 06:08:02;;;;;;;51.90;31.13;;;;;;;;;;5085063;28;20043;-73
2022/11/18 06:10:30;;;;;;;46.25;29.70;;;;;;;;;;5085413;28;20042;-73
2022/11/18 06:12:58;;;;;;;49.28;29.80;;;;;;;;;;5083526;28;20501;-72
2022/11/18 06:15:27;;;;;;;50.97;30.75;;;;;;;;;;5081420;28;20047;-74
2022/11/18 06:17:59;;;;;;;45.78;29.17;;;;;;;;;;5080190;28;20486;-72
2022/11/18 06:20:25;;;;;;;44.38;28.35;;;;;;;;;;5083833;28;20055;-73
2022/11/18 06:22:53;;;;;;;49.05;28.77;;;;;;;;;;5079114;28;20059;-71
2022/11/18 06:25:19;;;;;;;43.13;28.35;;;;;;;;;;5081867;28;20100;-72
2022/11/18 06:27:46;;;;;;;46.55;28.65;;;;;;;;;;5082006;27;20051;-71
2022/11/18 06:30:13;;;;;;;50.55;30.73;;;;;;;;;;5078321;28;20052;-73
2022/11/18 06:32:39;;;;;;;46.47;29.30;;;;;;;;;;5067544;28;20067;-72
2022/11/18 06:35:05;;;;;;;52.22;31.35;;;;;;;;;;5082118;28;20059;-74
2022/11/18 06:37:31;;;;;;;48.20;30.48;;;;;;;;;;5080745;28;20048;-74
2022/11/18 06:39:57;;;;;;;53.85;31.23;;;;;;;;;;5080172;28;20177;-72
2022/11/18 06:45:10;;;;;;;48.55;28.73;;;;;;;;;;5086863;28;20031;-72
2022/11/18 06:47:36;;;;;;;44.25;27.58;;;;;;;;;;5087255;28;20085;-73
2022/11/18 06:50:03;;;;;;;40.85;27.30;;;;;;;;;;5086982;28;20043;-72
2022/11/18 06:52:29;;;;;;;51.22;38.40;;;;;;;;;;5084135;28;20043;-72
2022/11/18 06:54:55;;;;;;;38.42;24.15;;;;;;;;;;5085841;28;20066;-74
2022/11/18 06:57:20;;;;;;;38.67;24.50;;;;;;;;;;5080961;28;20059;-73
2022/11/18 06:59:46;;;;;;;33.90;24.63;;;;;;;;;;5083417;28;20035;-72
2022/11/18 07:02:12;;;;;;;40.33;25.25;;;;;;;;;;5083358;28;20054;-73
2022/11/18 07:04:40;;;;;;;36.15;23.80;;;;;;;;;;5078675;28;20048;-73
2022/11/18 07:07:06;;;;;;;33.92;23.63;;;;;;;;;;5087300;28;20048;-74
2022/11/18 07:09:33;;;;;;;35.30;23.40;;;;;;;;;;5090206;28;20047;-75
2022/11/18 07:11:59;;;;;;;38.65;23.80;;;;;;;;;;5085756;28;20032;-76
2022/11/18 07:14:25;;;;;;;33.35;23.45;;;;;;;;;;5101171;27;20058;-76
2022/11/18 07:16:51;;;;;;;36.72;24.10;;;;;;;;;;5085688;28;20047;-73
2022/11/18 07:19:17;;;;;;;35.63;22.58;;;;;;;;;;5089456;28;20046;-73
2022/11/18 07:21:43;;;;;;;34.08;21.80;;;;;;;;;;5085277;28;22382;-73
2022/11/18 07:24:12;;;;;;;38.13;23.25;;;;;;;;;;5087553;28;20638;-73
2022/11/18 07:26:38;;;;;;;34.22;21.95;;;;;;;;;;5074870;28;20040;-73
2022/11/18 07:29:04;;;;;;;35.35;22.00;;;;;;;;;;5089613;28;20447;-72
2022/11/18 07:31:30;;;;;;;32.22;21.15;;;;;;;;;;5090153;28;20040;-73
2022/11/18 07:33:56;;;;;;;33.22;21.88;;;;;;;;;;5087015;28;20413;-72
2022/11/18 07:36:26;;;;;;;31.98;21.13;;;;;;;;;;5085317;28;20077;-71
2022/11/18 07:38:52;;;;;;;32.65;21.35;;;;;;;;;;5085086;28;20551;-71
2022/11/18 07:41:19;;;;;;;31.08;20.90;;;;;;;;;;5088529;28;20138;-71
2022/11/18 07:43:46;;;;;;;29.85;21.70;;;;;;;;;;5084990;28;20217;-70
2022/11/18 07:46:19;;;;;;;32.58;21.40;;;;;;;;;;5089368;28;20130;-73
2022/11/18 07:48:46;;;;;;;32.40;19.98;;;;;;;;;;5072624;28;20051;-73
2022/11/18 07:51:13;;;;;;;30.02;20.10;;;;;;;;;;5081800;28;20101;-72
2022/11/18 07:53:39;;;;;;;32.45;21.73;;;;;;;;;;5086180;28;20097;-72
2022/11/18 07:56:06;;;;;;;32.22;21.25;;;;;;;;;;5081128;28;20039;-70
2022/11/18 07:58:32;;;;;;;34.15;20.42;;;;;;;;;;5085069;28;20131;-73
2022/11/18 08:00:58;;;;;;;33.95;20.83;;;;;;;;;;5075805;28;20043;-73
2022/11/18 08:03:25;;;;;;;32.45;21.02;;;;;;;;;;5082844;28;20047;-73
2022/11/18 08:05:51;;;;;;;30.73;20.80;;;;;;;;;;5083648;28;20126;-69
2022/11/18 08:08:17;;;;;;;31.73;21.65;;;;;;;;;;5072316;28;20150;-72
2022/11/18 08:10:43;;;;;;;34.03;21.73;;;;;;;;;;5085629;28;20036;-70
2022/11/18 08:13:09;;;;;;;30.80;20.33;;;;;;;;;;5085914;28;20108;-71
2022/11/18 08:15:39;;;;;;;34.40;21.33;;;;;;;;;;5081608;28;20174;-73
2022/11/18 08:18:05;;;;;;;29.95;19.95;;;;;;;;;;5084319;28;20043;-70
2022/11/18 08:20:31;;;;;;;27.02;18.33;;;;;;;;;;5088496;28;20048;-71
2022/11/18 08:22:56;;;;;;;23.75;16.90;;;;;;;;;;5089052;28;20067;-70
2022/11/18 08:25:22;;;;;;;26.13;17.48;;;;;;;;;;5083605;28;20058;-70
2022/11/18 08:27:48;;;;;;;24.38;17.20;;;;;;;;;;5084741;28;20076;-70
2022/11/18 08:30:14;;;;;;;25.65;17.27;;;;;;;;;;5082002;27;20051;-70
2022/11/18 08:32:40;;;;;;;28.20;18.30;;;;;;;;;;5085796;28;20043;-70
2022/11/18 08:35:07;;;;;;;28.70;17.77;;;;;;;;;;5084286;28;20124;-71
2022/11/18 08:37:34;;;;;;;28.40;18.15;;;;;;;;;;5081376;27;20047;-72
2022/11/18 08:39:59;;;;;;;28.13;17.30;;;;;;;;;;5085557;28;20044;-69
2022/11/18 08:42:25;;;;;;;25.17;17.65;;;;;;;;;;5084551;28;20035;-70
2022/11/18 08:44:51;;;;;;;27.58;18.45;;;;;;;;;;5085496;28;20039;-70
2022/11/18 08:47:18;;;;;;;29.55;18.50;;;;;;;;;;5084717;28;20136;-70
2022/11/18 08:49:43;;;;;;;29.27;19.05;;;;;;;;;;5083598;28;20044;-69
2022/11/18 08:52:10;;;;;;;29.75;19.55;;;;;;;;;;5083785;28;20047;-69
2022/11/18 08:54:36;;;;;;;29.92;19.67;;;;;;;;;;5100173;27;20063;-71
2022/11/18 08:57:02;;;;;;;30.27;19.48;;;;;;;;;;5084517;28;20040;-71
2022/11/18 08:59:28;;;;;;;30.70;19.88;;;;;;;;;;5069068;28;20432;-71
2022/11/18 09:01:53;;;;;;;28.38;18.50;;;;;;;;;;5089189;28;20047;-72
2022/11/18 09:04:20;;;;;;;29.02;19.00;;;;;;;;;;5083971;28;20486;-73
2022/11/18 09:06:46;;;;;;;29.33;18.33;;;;;;;;;;5084352;28;20414;-71
2022/11/18 09:09:11;;;;;;;29.08;17.85;;;;;;;;;;5084127;28;20044;-73
2022/11/18 09:11:39;;;;;;;26.17;17.45;;;;;;;;;;5080968;28;20418;-73
2022/11/18 09:14:05;;;;;;;23.83;17.17;;;;;;;;;;5081928;28;20051;-72
2022/11/18 09:16:31;;;;;;;25.75;17.15;;;;;;;;;;5080461;28;20056;-72
2022/11/18 09:18:57;;;;;;;30.52;18.27;;;;;;;;;;5081882;28;20130;-72
2022/11/18 09:21:24;;;;;;;26.40;17.35;;;;;;;;;;5082209;28;20047;-73
2022/11/18 09:23:50;;;;;;;23.83;17.23;;;;;;;;;;5084390;28;20138;-73
2022/11/18 09:26:19;;;;;;;27.05;17.85;;;;;;;;;;5082757;28;20039;-73
2022/11/18 09:28:45;;;;;;;23.35;16.40;;;;;;;;;;5080572;28;20055;-71
2022/11/18 09:31:13;;;;;;;22.67;15.98;;;;;;;;;;5084313;28;20036;-72
2022/11/18 09:33:39;;;;;;;22.65;16.98;;;;;;;;;;5082372;28;20056;-73
2022/11/18 09:36:06;;;;;;;27.40;16.15;;;;;;;;;;5070173;28;20546;-71
2022/11/18 09:38:32;;;;;;;23.25;16.52;;;;;;;;;;5085917;28;20047;-74
2022/11/18 09:41:04;;;;;;;29.33;17.10;;;;;;;;;;5083499;27;20091;-72
2022/11/18 09:43:30;;;;;;;;;;;;;;;;;;5087172;28;20043;-73
2022/11/18 09:46:03;;;;;;;23.73;16.02;;;;;;;;;;5084736;28;20008;-73
2022/11/18 09:51:13;;;;;;;22.73;15.93;;;;;;;;;;5079950;28;20044;-74
2022/11/18 09:53:41;;;;;;;21.45;15.23;;;;;;;;;;5084905;28;20447;-71
2022/11/18 09:56:15;;;;;;;22.23;15.35;;;;;;;;;;5085054;28;20047;-71
2022/11/18 09:58:41;;;;;;;19.88;14.32;;;;;;;;;;5082100;28;20118;-72
2022/11/18 10:01:17;;;;;;;23.77;15.40;;;;;;;;;;5085200;28;20043;-72
2022/11/18 10:03:43;;;;;;;18.48;13.85;;;;;;;;;;5084437;27;20040;-73
2022/11/18 10:06:09;;;;;;;17.30;13.55;;;;;;;;;;5082489;28;20459;-72
2022/11/18 10:08:54;;;;;;;15.70;13.02;;;;;;;;;;5082480;28;20135;-73
2022/11/18 10:11:23;;;;;;;17.65;13.25;;;;;;;;;;5082029;28;20050;-74
2022/11/18 10:13:52;;;;;;;17.95;13.50;;;;;;;;;;5079212;28;20040;-73
2022/11/18 10:16:21;;;;;;;17.33;13.77;;;;;;;;;;5081200;28;20051;-73
2022/11/18 10:18:57;;;;;;;19.15;14.60;;;;;;;;;;5081935;28;20043;-74
2022/11/18 10:21:36;;;;;;;16.08;13.32;;;;;;;;;;5081235;28;20375;-73
2022/11/18 10:24:15;;;;;;;20.10;13.63;;;;;;;;;;5080074;28;20063;-71
2022/11/18 10:26:41;;;;;;;16.77;13.15;;;;;;;;;;5083278;28;20494;-73
2022/11/18 10:29:08;;;;;;;17.27;13.55;;;;;;;;;;5088544;28;20517;-72
2022/11/18 10:31:54;;;;;;;17.95;14.38;;;;;;;;;;5081127;28;20498;-72
2022/11/18 10:34:20;;;;;;;18.92;14.60;;;;;;;;;;5081440;28;20059;-72
2022/11/18 10:37:06;;;;;;;21.08;15.48;;;;;;;;;;5080756;28;20039;-71
2022/11/18 10:39:33;;;;;;;19.83;14.52;;;;;;;;;;5083930;28;20071;-72
2022/11/18 10:42:01;;;;;;;17.83;13.93;;;;;;;;;;5081756;28;20047;-73
2022/11/18 10:44:30;;;;;;;19.52;14.48;;;;;;;;;;5083322;28;20039;-75
2022/11/18 10:47:13;;;;;;;20.02;13.77;;;;;;;;;;5083799;28;20052;-72
2022/11/18 10:49:39;;;;;;;18.15;13.35;;;;;;;;;;5081005;28;20051;-72
2022/11/18 10:52:09;;;;;;;14.98;12.13;;;;;;;;;;5081703;28;20047;-73
2022/11/18 10:54:36;;;;;;;15.35;12.73;;;;;;;;;;5084431;28;20402;-74
2022/11/18 10:57:01;;;;;;;16.42;12.20;;;;;;;;;;5079604;28;20108;-74
2022/11/18 10:59:27;;;;;;;16.48;12.88;;;;;;;;;;5078883;28;21068;-72
2022/11/18 11:02:11;;;;;;;18.00;12.30;;;;;;;;;;5083297;28;20437;-74
2022/11/18 11:04:38;;;;;;;14.65;12.18;;;;;;;;;;5082154;28;20096;-73
2022/11/18 11:07:14;;;;;;;16.77;12.70;;;;;;;;;;5085262;28;20051;-74
2022/11/18 11:09:40;;;;;;;15.70;13.05;;;;;;;;;;5069981;28;20059;-72
2022/11/18 11:12:09;;;;;;;16.73;13.60;;;;;;;;;;5076211;28;20067;-72
2022/11/18 11:14:53;;;;;;;16.63;13.93;;;;;;;;;;5079795;28;20075;-72
2022/11/18 11:17:30;;;;;;;19.10;14.00;;;;;;;;;;5082372;28;20062;-72
2022/11/18 11:20:18;;;;;;;21.10;14.63;;;;;;;;;;5082793;28;20054;-75
2022/11/18 11:22:45;;;;;;;18.60;14.27;;;;;;;;;;5083153;28;20035;-73
2022/11/18 11:25:27;;;;;;;20.70;14.85;;;;;;;;;;5081358;28;20035;-74
2022/11/18 11:28:09;;;;;;;17.83;14.07;;;;;;;;;;5076508;28;20075;-73
2022/11/18 11:30:40;;;;;;;17.23;13.55;;;;;;;;;;5075795;28;20047;-73
2022/11/18 11:33:10;;;;;;;15.65;13.27;;;;;;;;;;5080919;28;20151;-71
2022/11/18 11:35:39;;;;;;;16.45;12.90;;;;;;;;;;5084751;28;20490;-73
2022/11/18 11:38:23;;;;;;;17.40;13.05;;;;;;;;;;5079518;28;20131;-73
2022/11/18 11:41:04;;;;;;;15.32;12.70;;;;;;;;;;5087007;28;20085;-74
2022/11/18 11:43:38;;;;;;;16.05;12.75;;;;;;;;;;5077694;28;20130;-73
2022/11/18 11:46:13;;;;;;;14.10;11.25;;;;;;;;;;5080695;28;20047;-72
2022/11/18 11:48:42;;;;;;;14.93;11.50;;;;;;;;;;5077266;28;20050;-73
2022/11/18 11:51:24;;;;;;;13.52;10.90;;;;;;;;;;5081453;28;20371;-73
2022/11/18 11:53:53;;;;;;;12.52;10.52;;;;;;;;;;5077525;28;20487;-72
2022/11/18 11:56:28;;;;;;;13.75;10.68;;;;;;;;;;5078544;28;20054;-71
2022/11/18 11:59:05;;;;;;;13.85;10.52;;;;;;;;;;5079128;28;20039;-72
2022/11/18 12:01:35;;;;;;;13.45;11.07;;;;;;;;;;5084194;28;20153;-73
2022/11/18 12:04:10;;;;;;;13.00;10.27;;;;;;;;;;5085004;28;20067;-71
2022/11/18 12:06:36;;;;;;;11.40;8.52;;;;;;;;;;5087903;27;20044;-71
2022/11/18 12:09:15;;;;;;;8.93;7.65;;;;;;;;;;5083937;27;20950;-73
2022/11/18 12:11:47;;;;;;;10.40;7.40;;;;;;;;;;5080735;28;20051;-73
2022/11/18 12:14:26;;;;;;;11.77;7.15;;;;;;;;;;5083472;28;20164;-74
2022/11/18 12:16:56;;;;;;;7.90;7.05;;;;;;;;;;5084660;28;20040;-71
2022/11/18 12:19:22;;;;;;;7.60;6.65;;;;;;;;;;5084996;27;20039;-73
2022/11/18 12:21:48;;;;;;;8.90;7.18;;;;;;;;;;5085361;28;20120;-72
2022/11/18 12:24:35;;;;;;;9.27;7.63;;;;;;;;;;5084760;28;20059;-73
2022/11/18 12:27:04;;;;;;;10.15;8.23;;;;;;;;;;5087571;28;21779;-73
2022/11/18 12:29:36;;;;;;;10.80;8.57;;;;;;;;;;5066876;28;20043;-71
2022/11/18 12:32:02;;;;;;;9.00;8.00;;;;;;;;;;5082171;27;20047;-73
2022/11/18 12:34:30;;;;;;;11.07;8.25;;;;;;;;;;5085025;28;20048;-73
2022/11/18 12:36:56;;;;;;;11.88;8.50;;;;;;;;;;5087492;28;20133;-73
2022/11/18 12:39:28;;;;;;;10.95;8.77;;;;;;;;;;5085131;28;20044;-72
2022/11/18 12:44:44;;;;;;;11.10;9.00;;;;;;;;;;5084678;28;20032;-74
2022/11/18 12:47:11;;;;;;;13.43;9.10;;;;;;;;;;5070390;28;20047;-72
2022/11/18 12:49:37;;;;;;;15.57;9.68;;;;;;;;;;5084367;28;20498;-72
2022/11/18 12:52:04;;;;;;;14.45;10.38;;;;;;;;;;5080408;28;20063;-72
2022/11/18 12:54:30;;;;;;;14.70;11.05;;;;;;;;;;5101883;28;20039;-72
2022/11/18 12:57:02;;;;;;;14.02;10.27;;;;;;;;;;5087650;27;20039;-72
2022/11/18 12:59:30;;;;;;;14.02;10.25;;;;;;;;;;5086655;28;20044;-71
2022/11/18 13:02:03;;;;;;;15.00;11.05;;;;;;;;;;5100962;28;22249;-70
2022/11/18 13:04:29;;;;;;;15.77;11.23;;;;;;;;;;5085842;28;20043;-72
2022/11/18 13:06:58;;;;;;;16.63;11.38;;;;;;;;;;5083466;28;20035;-71
2022/11/18 13:09:25;;;;;;;16.85;12.23;;;;;;;;;;5086190;28;20039;-72
2022/11/18 13:11:58;;;;;;;16.13;11.85;;;;;;;;;;5084192;28;20051;-72
2022/11/18 13:20:26;;;;;;;14.85;11.25;;;;;;;;;;5083571;28;20040;-71
2022/11/18 13:25:43;;;;;;;18.08;12.55;;;;;;;;;;5084807;28;20035;-72
2022/11/18 13:28:32;;;;;;;19.67;12.63;;;;;;;;;;5084721;28;20043;-71
2022/11/18 13:31:18;;;;;;;21.67;14.05;;;;;;;;;;5084812;28;20046;-71
2022/11/18 13:33:44;;;;;;;18.75;13.40;;;;;;;;;;5046829;28;20053;-70
2022/11/18 13:36:21;;;;;;;23.55;14.95;;;;;;;;;;5084858;28;20514;-72
2022/11/18 13:38:56;;;;;;;24.13;15.52;;;;;;;;;;5085429;28;20124;-70
2022/11/18 13:41:23;;;;;;;24.55;16.17;;;;;;;;;;5083463;28;20035;-72
2022/11/18 13:43:49;;;;;;;20.63;15.43;;;;;;;;;;5083972;28;20067;-73
2022/11/18 13:46:18;;;;;;;22.90;15.05;;;;;;;;;;5088474;28;20051;-72
2022/11/18 13:48:48;;;;;;;20.38;14.15;;;;;;;;;;5085342;28;20391;-70
2022/11/18 13:51:14;;;;;;;20.88;14.63;;;;;;;;;;5096633;28;20054;-71
2022/11/18 13:53:41;;;;;;;20.45;14.50;;;;;;;;;;5085724;28;20054;-71
2022/11/18 13:56:15;;;;;;;18.42;12.85;;;;;;;;;;5079108;28;20071;-71
2022/11/18 13:58:50;;;;;;;19.35;13.50;;;;;;;;;;5087685;28;20040;-70
2022/11/18 14:01:21;;;;;;;17.05;12.15;;;;;;;;;;5090452;28;20057;-71
2022/11/18 14:03:51;;;;;;;15.20;11.35;;;;;;;;;;5089279;28;20085;-70
2022/11/18 14:06:28;;;;;;;15.07;11.30;;;;;;;;;;5083133;28;20142;-70
2022/11/18 14:09:04;;;;;;;14.68;10.77;;;;;;;;;;5074157;28;20074;-70
2022/11/18 14:11:53;;;;;;;15.75;11.52;;;;;;;;;;5079388;28;20044;-70
2022/11/18 14:14:30;;;;;;;15.05;11.25;;;;;;;;;;5061274;28;20559;-70
2022/11/18 14:17:03;;;;;;;17.10;11.82;;;;;;;;;;5088495;28;20047;-71
2022/11/18 14:19:30;;;;;;;18.95;12.40;;;;;;;;;;5080423;28;20486;-72
2022/11/18 14:22:25;;;;;;;17.05;11.93;;;;;;;;;;5085292;28;20043;-72
2022/11/18 14:25:02;;;;;;;18.50;13.45;;;;;;;;;;5073084;28;20502;-72
2022/11/18 14:27:35;;;;;;;18.25;13.40;;;;;;;;;;5081303;28;20113;-72
2022/11/18 14:30:01;;;;;;;20.83;13.20;;;;;;;;;;5085408;28;20043;-71
2022/11/18 14:32:27;;;;;;;19.00;13.25;;;;;;;;;;5083134;28;20051;-71
2022/11/18 14:34:58;;;;;;;18.27;13.45;;;;;;;;;;5088844;28;20046;-71
2022/11/18 14:37:24;;;;;;;17.48;12.85;;;;;;;;;;5080774;28;20104;-71
2022/11/18 14:39:54;;;;;;;19.38;13.23;;;;;;;;;;5084925;28;20048;-71
2022/11/18 14:42:20;;;;;;;17.70;12.95;;;;;;;;;;5082944;28;20052;-70
2022/11/18 14:44:46;;;;;;;18.33;13.23;;;;;;;;;;5079458;28;20118;-71
2022/11/18 14:47:20;;;;;;;19.25;12.80;;;;;;;;;;5093097;28;20059;-71
2022/11/18 14:49:46;;;;;;;20.27;13.50;;;;;;;;;;5089359;28;20043;-71
2022/11/18 14:52:12;;;;;;;19.42;13.70;;;;;;;;;;5084944;28;20073;-72
2022/11/18 14:54:38;;;;;;;18.38;13.98;;;;;;;;;;5109847;28;20050;-72